sensor_id;sensor_type;location;lat;lon;timestamp;P1;durP1;ratioP1;P2;durP2;ratioP2
17947;SDS011;9099;47.958;11.366;2022-12-20T00:00:02;2.15;;;1.95;;
17947;SDS011;9099;47.958;11.366;2022-12-20T00:02:29;1.80;;;1.70;;
17947;SDS011;9099;47.958;11.366;2022-12-20T00:04:56;2.30;;;2.08;;
17947;SDS011;9099;47.958;11.366;2022-12-20T00:07:23;2.17;;;1.80;;
17947;SDS011;9099;47.958;11.366;2022-12-20T00:09:49;2.00;;;1.80;;
17947;SDS011;9099;47.958;11.366;2022-12-20T00:12:16;1.67;;;1.52;;
17947;SDS011;9099;47.958;11.366;2022-12-20T00:14:43;1.98;;;1.80;;
17947;SDS011;9099;47.958;11.366;2022-12-20T00:17:11;1.73;;;1.40;;
17947;SDS011;9099;47.958;11.366;2022-12-20T00:19:38;1.92;;;1.73;;
17947;SDS011;9099;47.958;11.366;2022-12-20T00:22:05;1.80;;;1.70;;
17947;SDS011;9099;47.958;11.366;2022-12-20T00:24:32;2.25;;;1.60;;
17947;SDS011;9099;47.958;11.366;2022-12-20T00:26:58;2.15;;;1.80;;
17947;SDS011;9099;47.958;11.366;2022-12-20T00:29:25;2.17;;;1.90;;
17947;SDS011;9099;47.958;11.366;2022-12-20T00:31:52;2.10;;;1.90;;
17947;SDS011;9099;47.958;11.366;2022-12-20T00:34:21;2.50;;;2.08;;
17947;SDS011;9099;47.958;11.366;2022-12-20T00:36:47;2.10;;;1.90;;
17947;SDS011;9099;47.958;11.366;2022-12-20T00:39:14;2.63;;;2.42;;
17947;SDS011;9099;47.958;11.366;2022-12-20T00:41:41;2.63;;;2.43;;
17947;SDS011;9099;47.958;11.366;2022-12-20T00:44:08;2.60;;;2.40;;
17947;SDS011;9099;47.958;11.366;2022-12-20T00:46:35;3.10;;;2.77;;
17947;SDS011;9099;47.958;11.366;2022-12-20T00:49:02;2.70;;;2.50;;
17947;SDS011;9099;47.958;11.366;2022-12-20T00:51:30;2.70;;;2.50;;
17947;SDS011;9099;47.958;11.366;2022-12-20T00:53:57;2.90;;;2.60;;
17947;SDS011;9099;47.958;11.366;2022-12-20T00:56:24;2.83;;;2.63;;
17947;SDS011;9099;47.958;11.366;2022-12-20T00:58:51;3.07;;;2.77;;
17947;SDS011;9099;47.958;11.366;2022-12-20T01:01:19;3.42;;;3.13;;
17947;SDS011;9099;47.958;11.366;2022-12-20T01:03:47;3.58;;;2.78;;
17947;SDS011;9099;47.958;11.366;2022-12-20T01:06:15;2.50;;;2.30;;
17947;SDS011;9099;47.958;11.366;2022-12-20T01:08:43;3.30;;;2.75;;
17947;SDS011;9099;47.958;11.366;2022-12-20T01:11:11;2.43;;;2.23;;
17947;SDS011;9099;47.958;11.366;2022-12-20T01:13:40;2.47;;;2.28;;
17947;SDS011;9099;47.958;11.366;2022-12-20T01:16:09;3.60;;;2.40;;
17947;SDS011;9099;47.958;11.366;2022-12-20T01:18:37;2.70;;;2.50;;
17947;SDS011;9099;47.958;11.366;2022-12-20T01:21:05;2.75;;;2.20;;
17947;SDS011;9099;47.958;11.366;2022-12-20T01:23:33;2.30;;;2.10;;
17947;SDS011;9099;47.958;11.366;2022-12-20T01:26:03;1.92;;;1.83;;
17947;SDS011;9099;47.958;11.366;2022-12-20T01:28:34;1.70;;;1.60;;
17947;SDS011;9099;47.958;11.366;2022-12-20T01:31:01;2.07;;;1.60;;
17947;SDS011;9099;47.958;11.366;2022-12-20T01:33:31;2.30;;;1.77;;
17947;SDS011;9099;47.958;11.366;2022-12-20T01:35:59;2.10;;;1.90;;
17947;SDS011;9099;47.958;11.366;2022-12-20T01:38:26;1.70;;;1.60;;
17947;SDS011;9099;47.958;11.366;2022-12-20T01:40:54;1.50;;;1.40;;
17947;SDS011;9099;47.958;11.366;2022-12-20T01:43:23;1.77;;;1.67;;
17947;SDS011;9099;47.958;11.366;2022-12-20T01:45:51;1.67;;;1.58;;
17947;SDS011;9099;47.958;11.366;2022-12-20T01:48:19;1.50;;;1.40;;
17947;SDS011;9099;47.958;11.366;2022-12-20T01:50:48;2.15;;;1.77;;
17947;SDS011;9099;47.958;11.366;2022-12-20T01:53:16;1.52;;;1.42;;
17947;SDS011;9099;47.958;11.366;2022-12-20T01:55:46;1.60;;;1.50;;
17947;SDS011;9099;47.958;11.366;2022-12-20T01:58:13;2.17;;;1.83;;
17947;SDS011;9099;47.958;11.366;2022-12-20T02:00:44;1.50;;;1.40;;
17947;SDS011;9099;47.958;11.366;2022-12-20T02:03:11;1.38;;;1.27;;
17947;SDS011;9099;47.958;11.366;2022-12-20T02:05:42;1.50;;;1.40;;
17947;SDS011;9099;47.958;11.366;2022-12-20T02:08:11;1.50;;;1.40;;
17947;SDS011;9099;47.958;11.366;2022-12-20T02:10:43;1.60;;;1.50;;
17947;SDS011;9099;47.958;11.366;2022-12-20T02:13:28;1.45;;;1.35;;
17947;SDS011;9099;47.958;11.366;2022-12-20T02:16:04;1.40;;;1.30;;
17947;SDS011;9099;47.958;11.366;2022-12-20T02:18:32;1.50;;;1.40;;
17947;SDS011;9099;47.958;11.366;2022-12-20T02:21:11;1.83;;;1.73;;
17947;SDS011;9099;47.958;11.366;2022-12-20T02:27:13;1.77;;;1.63;;
17947;SDS011;9099;47.958;11.366;2022-12-20T02:30:11;1.40;;;1.25;;
17947;SDS011;9099;47.958;11.366;2022-12-20T02:32:42;1.40;;;1.30;;
17947;SDS011;9099;47.958;11.366;2022-12-20T02:35:14;1.47;;;1.37;;
17947;SDS011;9099;47.958;11.366;2022-12-20T02:37:47;1.40;;;1.25;;
17947;SDS011;9099;47.958;11.366;2022-12-20T02:40:16;1.42;;;1.33;;
17947;SDS011;9099;47.958;11.366;2022-12-20T02:42:49;1.23;;;1.13;;
17947;SDS011;9099;47.958;11.366;2022-12-20T02:45:21;1.40;;;1.30;;
17947;SDS011;9099;47.958;11.366;2022-12-20T02:47:51;1.40;;;1.27;;
17947;SDS011;9099;47.958;11.366;2022-12-20T02:50:21;1.30;;;1.20;;
17947;SDS011;9099;47.958;11.366;2022-12-20T02:52:51;1.33;;;1.23;;
17947;SDS011;9099;47.958;11.366;2022-12-20T02:55:19;1.80;;;1.23;;
17947;SDS011;9099;47.958;11.366;2022-12-20T02:57:55;1.23;;;1.13;;
17947;SDS011;9099;47.958;11.366;2022-12-20T03:00:29;1.60;;;1.40;;
17947;SDS011;9099;47.958;11.366;2022-12-20T03:03:00;1.70;;;1.30;;
17947;SDS011;9099;47.958;11.366;2022-12-20T03:05:45;1.50;;;1.40;;
17947;SDS011;9099;47.958;11.366;2022-12-20T03:08:13;1.70;;;1.60;;
17947;SDS011;9099;47.958;11.366;2022-12-20T03:10:40;1.60;;;1.50;;
17947;SDS011;9099;47.958;11.366;2022-12-20T03:13:07;2.03;;;1.60;;
17947;SDS011;9099;47.958;11.366;2022-12-20T03:15:36;1.50;;;1.40;;
17947;SDS011;9099;47.958;11.366;2022-12-20T03:18:03;1.48;;;1.38;;
17947;SDS011;9099;47.958;11.366;2022-12-20T03:20:30;1.70;;;1.47;;
17947;SDS011;9099;47.958;11.366;2022-12-20T03:22:57;1.30;;;1.20;;
17947;SDS011;9099;47.958;11.366;2022-12-20T03:25:23;1.33;;;1.23;;
17947;SDS011;9099;47.958;11.366;2022-12-20T03:27:50;1.33;;;1.30;;
17947;SDS011;9099;47.958;11.366;2022-12-20T03:30:17;1.10;;;1.00;;
17947;SDS011;9099;47.958;11.366;2022-12-20T03:32:45;1.80;;;1.50;;
17947;SDS011;9099;47.958;11.366;2022-12-20T03:35:12;1.45;;;1.35;;
17947;SDS011;9099;47.958;11.366;2022-12-20T03:37:39;1.60;;;1.50;;
17947;SDS011;9099;47.958;11.366;2022-12-20T03:40:07;1.55;;;1.30;;
17947;SDS011;9099;47.958;11.366;2022-12-20T03:42:35;1.77;;;1.67;;
17947;SDS011;9099;47.958;11.366;2022-12-20T03:45:02;1.57;;;1.30;;
17947;SDS011;9099;47.958;11.366;2022-12-20T03:47:30;1.58;;;1.48;;
17947;SDS011;9099;47.958;11.366;2022-12-20T03:49:58;2.75;;;2.50;;
17947;SDS011;9099;47.958;11.366;2022-12-20T03:52:25;4.13;;;3.55;;
17947;SDS011;9099;47.958;11.366;2022-12-20T03:54:51;3.50;;;3.20;;
17947;SDS011;9099;47.958;11.366;2022-12-20T03:57:18;3.22;;;2.60;;
17947;SDS011;9099;47.958;11.366;2022-12-20T03:59:45;2.75;;;2.45;;
17947;SDS011;9099;47.958;11.366;2022-12-20T04:02:12;3.35;;;2.80;;
17947;SDS011;9099;47.958;11.366;2022-12-20T04:04:39;3.08;;;2.78;;
17947;SDS011;9099;47.958;11.366;2022-12-20T04:07:07;3.07;;;2.60;;
17947;SDS011;9099;47.958;11.366;2022-12-20T04:09:34;3.80;;;3.35;;
17947;SDS011;9099;47.958;11.366;2022-12-20T04:12:01;5.13;;;3.50;;
17947;SDS011;9099;47.958;11.366;2022-12-20T04:14:28;3.17;;;2.87;;
17947;SDS011;9099;47.958;11.366;2022-12-20T04:16:55;3.17;;;2.87;;
17947;SDS011;9099;47.958;11.366;2022-12-20T04:19:21;3.00;;;2.33;;
17947;SDS011;9099;47.958;11.366;2022-12-20T04:21:48;2.95;;;2.65;;
17947;SDS011;9099;47.958;11.366;2022-12-20T04:24:17;3.22;;;2.92;;
17947;SDS011;9099;47.958;11.366;2022-12-20T04:26:43;2.72;;;2.53;;
17947;SDS011;9099;47.958;11.366;2022-12-20T04:29:10;3.63;;;2.80;;
17947;SDS011;9099;47.958;11.366;2022-12-20T04:31:37;2.73;;;2.40;;
17947;SDS011;9099;47.958;11.366;2022-12-20T04:34:04;3.00;;;2.70;;
17947;SDS011;9099;47.958;11.366;2022-12-20T04:36:31;3.07;;;2.30;;
17947;SDS011;9099;47.958;11.366;2022-12-20T04:38:58;2.33;;;2.13;;
17947;SDS011;9099;47.958;11.366;2022-12-20T04:41:27;2.47;;;2.15;;
17947;SDS011;9099;47.958;11.366;2022-12-20T04:43:54;2.33;;;2.13;;
17947;SDS011;9099;47.958;11.366;2022-12-20T04:46:22;2.35;;;2.08;;
17947;SDS011;9099;47.958;11.366;2022-12-20T04:48:50;2.30;;;2.10;;
17947;SDS011;9099;47.958;11.366;2022-12-20T04:51:17;1.80;;;1.70;;
17947;SDS011;9099;47.958;11.366;2022-12-20T04:53:44;2.20;;;2.00;;
17947;SDS011;9099;47.958;11.366;2022-12-20T04:56:17;2.50;;;2.30;;
17947;SDS011;9099;47.958;11.366;2022-12-20T04:58:48;2.00;;;1.90;;
17947;SDS011;9099;47.958;11.366;2022-12-20T05:01:17;3.05;;;2.20;;
17947;SDS011;9099;47.958;11.366;2022-12-20T05:03:44;1.80;;;1.70;;
17947;SDS011;9099;47.958;11.366;2022-12-20T05:06:11;2.17;;;1.98;;
17947;SDS011;9099;47.958;11.366;2022-12-20T05:08:38;1.80;;;1.70;;
17947;SDS011;9099;47.958;11.366;2022-12-20T05:11:05;2.85;;;1.95;;
17947;SDS011;9099;47.958;11.366;2022-12-20T05:13:32;2.23;;;1.93;;
17947;SDS011;9099;47.958;11.366;2022-12-20T05:16:01;1.63;;;1.52;;
17947;SDS011;9099;47.958;11.366;2022-12-20T05:18:28;2.30;;;1.53;;
17947;SDS011;9099;47.958;11.366;2022-12-20T05:20:56;1.73;;;1.63;;
17947;SDS011;9099;47.958;11.366;2022-12-20T05:23:52;2.10;;;1.90;;
17947;SDS011;9099;47.958;11.366;2022-12-20T05:26:42;1.97;;;1.70;;
17947;SDS011;9099;47.958;11.366;2022-12-20T05:29:09;2.45;;;1.50;;
17947;SDS011;9099;47.958;11.366;2022-12-20T05:31:37;1.90;;;1.70;;
17947;SDS011;9099;47.958;11.366;2022-12-20T05:34:04;2.15;;;1.60;;
17947;SDS011;9099;47.958;11.366;2022-12-20T05:36:30;2.55;;;1.42;;
17947;SDS011;9099;47.958;11.366;2022-12-20T05:38:57;1.85;;;1.75;;
17947;SDS011;9099;47.958;11.366;2022-12-20T05:41:24;2.20;;;2.00;;
17947;SDS011;9099;47.958;11.366;2022-12-20T05:43:51;2.42;;;1.73;;
17947;SDS011;9099;47.958;11.366;2022-12-20T05:46:18;2.20;;;1.83;;
17947;SDS011;9099;47.958;11.366;2022-12-20T05:48:46;1.90;;;1.67;;
17947;SDS011;9099;47.958;11.366;2022-12-20T05:51:13;3.00;;;2.08;;
17947;SDS011;9099;47.958;11.366;2022-12-20T05:53:40;1.73;;;1.63;;
17947;SDS011;9099;47.958;11.366;2022-12-20T05:56:07;2.05;;;1.92;;
17947;SDS011;9099;47.958;11.366;2022-12-20T05:58:34;2.30;;;1.50;;
17947;SDS011;9099;47.958;11.366;2022-12-20T06:01:01;1.70;;;1.60;;
17947;SDS011;9099;47.958;11.366;2022-12-20T06:03:29;3.75;;;1.30;;
17947;SDS011;9099;47.958;11.366;2022-12-20T06:05:57;1.57;;;1.47;;
17947;SDS011;9099;47.958;11.366;2022-12-20T06:08:25;1.88;;;1.77;;
17947;SDS011;9099;47.958;11.366;2022-12-20T06:10:51;1.38;;;1.27;;
17947;SDS011;9099;47.958;11.366;2022-12-20T06:13:19;1.83;;;1.73;;
17947;SDS011;9099;47.958;11.366;2022-12-20T06:15:46;1.45;;;1.35;;
17947;SDS011;9099;47.958;11.366;2022-12-20T06:18:13;2.13;;;1.80;;
17947;SDS011;9099;47.958;11.366;2022-12-20T06:20:39;2.10;;;1.58;;
17947;SDS011;9099;47.958;11.366;2022-12-20T06:23:08;5.65;;;5.15;;
17947;SDS011;9099;47.958;11.366;2022-12-20T06:25:34;2.92;;;2.40;;
17947;SDS011;9099;47.958;11.366;2022-12-20T06:28:02;3.60;;;3.30;;
17947;SDS011;9099;47.958;11.366;2022-12-20T06:30:29;3.20;;;2.83;;
17947;SDS011;9099;47.958;11.366;2022-12-20T06:32:56;3.20;;;2.90;;
17947;SDS011;9099;47.958;11.366;2022-12-20T06:35:23;2.87;;;2.67;;
17947;SDS011;9099;47.958;11.366;2022-12-20T06:37:50;4.60;;;2.60;;
17947;SDS011;9099;47.958;11.366;2022-12-20T06:40:18;4.10;;;2.88;;
17947;SDS011;9099;47.958;11.366;2022-12-20T06:42:45;2.35;;;2.15;;
17947;SDS011;9099;47.958;11.366;2022-12-20T06:45:12;2.25;;;1.80;;
17947;SDS011;9099;47.958;11.366;2022-12-20T06:47:40;2.25;;;1.77;;
17947;SDS011;9099;47.958;11.366;2022-12-20T06:50:07;1.73;;;1.63;;
17947;SDS011;9099;47.958;11.366;2022-12-20T06:52:34;3.35;;;1.65;;
17947;SDS011;9099;47.958;11.366;2022-12-20T06:55:01;1.92;;;1.73;;
17947;SDS011;9099;47.958;11.366;2022-12-20T06:57:29;2.58;;;1.80;;
17947;SDS011;9099;47.958;11.366;2022-12-20T06:59:57;1.50;;;1.40;;
17947;SDS011;9099;47.958;11.366;2022-12-20T07:02:24;2.13;;;1.30;;
17947;SDS011;9099;47.958;11.366;2022-12-20T07:04:51;1.45;;;1.35;;
17947;SDS011;9099;47.958;11.366;2022-12-20T07:07:17;1.23;;;1.10;;
17947;SDS011;9099;47.958;11.366;2022-12-20T07:09:44;2.10;;;1.60;;
17947;SDS011;9099;47.958;11.366;2022-12-20T07:12:11;4.65;;;4.25;;
17947;SDS011;9099;47.958;11.366;2022-12-20T07:14:39;3.95;;;3.65;;
17947;SDS011;9099;47.958;11.366;2022-12-20T07:17:06;2.30;;;2.07;;
17947;SDS011;9099;47.958;11.366;2022-12-20T07:19:33;2.05;;;1.90;;
17947;SDS011;9099;47.958;11.366;2022-12-20T07:22:01;2.50;;;1.60;;
17947;SDS011;9099;47.958;11.366;2022-12-20T07:24:28;3.65;;;3.35;;
17947;SDS011;9099;47.958;11.366;2022-12-20T07:26:55;5.03;;;4.18;;
17947;SDS011;9099;47.958;11.366;2022-12-20T07:29:22;4.30;;;3.90;;
17947;SDS011;9099;47.958;11.366;2022-12-20T07:31:51;3.00;;;2.80;;
17947;SDS011;9099;47.958;11.366;2022-12-20T07:34:18;3.17;;;2.88;;
17947;SDS011;9099;47.958;11.366;2022-12-20T07:36:45;3.95;;;3.63;;
17947;SDS011;9099;47.958;11.366;2022-12-20T07:39:12;3.83;;;3.40;;
17947;SDS011;9099;47.958;11.366;2022-12-20T07:41:39;3.20;;;2.90;;
17947;SDS011;9099;47.958;11.366;2022-12-20T07:44:06;4.22;;;2.72;;
17947;SDS011;9099;47.958;11.366;2022-12-20T07:46:32;3.33;;;2.53;;
17947;SDS011;9099;47.958;11.366;2022-12-20T07:49:01;2.85;;;2.17;;
17947;SDS011;9099;47.958;11.366;2022-12-20T07:51:28;3.28;;;2.42;;
17947;SDS011;9099;47.958;11.366;2022-12-20T07:54:00;6.70;;;4.05;;
17947;SDS011;9099;47.958;11.366;2022-12-20T07:56:31;3.88;;;3.13;;
17947;SDS011;9099;47.958;11.366;2022-12-20T07:59:00;2.97;;;2.75;;
17947;SDS011;9099;47.958;11.366;2022-12-20T08:01:28;2.63;;;2.42;;
17947;SDS011;9099;47.958;11.366;2022-12-20T08:03:58;4.68;;;2.65;;
17947;SDS011;9099;47.958;11.366;2022-12-20T08:06:30;4.68;;;2.85;;
17947;SDS011;9099;47.958;11.366;2022-12-20T08:08:59;5.38;;;3.40;;
17947;SDS011;9099;47.958;11.366;2022-12-20T08:11:29;4.10;;;3.45;;
17947;SDS011;9099;47.958;11.366;2022-12-20T08:13:59;3.50;;;3.20;;
17947;SDS011;9099;47.958;11.366;2022-12-20T08:16:26;3.53;;;2.30;;
17947;SDS011;9099;47.958;11.366;2022-12-20T08:18:53;3.42;;;3.03;;
17947;SDS011;9099;47.958;11.366;2022-12-20T08:21:21;3.08;;;2.60;;
17947;SDS011;9099;47.958;11.366;2022-12-20T08:23:48;3.03;;;2.60;;
17947;SDS011;9099;47.958;11.366;2022-12-20T08:26:16;3.13;;;2.63;;
17947;SDS011;9099;47.958;11.366;2022-12-20T08:28:43;3.70;;;2.83;;
17947;SDS011;9099;47.958;11.366;2022-12-20T08:31:10;3.20;;;2.40;;
17947;SDS011;9099;47.958;11.366;2022-12-20T08:33:37;3.55;;;2.42;;
17947;SDS011;9099;47.958;11.366;2022-12-20T08:36:05;2.40;;;2.20;;
17947;SDS011;9099;47.958;11.366;2022-12-20T08:38:35;2.55;;;2.35;;
17947;SDS011;9099;47.958;11.366;2022-12-20T08:41:02;2.90;;;2.58;;
17947;SDS011;9099;47.958;11.366;2022-12-20T08:43:30;3.65;;;2.30;;
17947;SDS011;9099;47.958;11.366;2022-12-20T08:45:57;2.70;;;2.50;;
17947;SDS011;9099;47.958;11.366;2022-12-20T08:48:27;3.83;;;3.53;;
17947;SDS011;9099;47.958;11.366;2022-12-20T08:50:54;4.53;;;3.65;;
17947;SDS011;9099;47.958;11.366;2022-12-20T08:53:22;3.92;;;3.10;;
17947;SDS011;9099;47.958;11.366;2022-12-20T08:55:50;2.88;;;2.58;;
17947;SDS011;9099;47.958;11.366;2022-12-20T08:58:17;3.13;;;2.70;;
17947;SDS011;9099;47.958;11.366;2022-12-20T09:00:44;3.58;;;2.70;;
17947;SDS011;9099;47.958;11.366;2022-12-20T09:03:12;5.50;;;2.95;;
17947;SDS011;9099;47.958;11.366;2022-12-20T09:05:42;3.97;;;2.42;;
17947;SDS011;9099;47.958;11.366;2022-12-20T09:08:13;2.75;;;2.20;;
17947;SDS011;9099;47.958;11.366;2022-12-20T09:10:41;2.50;;;2.30;;
17947;SDS011;9099;47.958;11.366;2022-12-20T09:13:09;3.47;;;2.42;;
17947;SDS011;9099;47.958;11.366;2022-12-20T09:15:36;2.45;;;2.20;;
17947;SDS011;9099;47.958;11.366;2022-12-20T09:18:03;2.97;;;2.47;;
17947;SDS011;9099;47.958;11.366;2022-12-20T09:20:30;2.42;;;2.20;;
17947;SDS011;9099;47.958;11.366;2022-12-20T09:22:58;2.30;;;2.10;;
17947;SDS011;9099;47.958;11.366;2022-12-20T09:25:25;2.40;;;2.03;;
17947;SDS011;9099;47.958;11.366;2022-12-20T09:27:53;3.38;;;2.10;;
17947;SDS011;9099;47.958;11.366;2022-12-20T09:30:22;4.43;;;1.98;;
17947;SDS011;9099;47.958;11.366;2022-12-20T09:32:49;1.90;;;1.73;;
17947;SDS011;9099;47.958;11.366;2022-12-20T09:35:16;1.83;;;1.73;;
17947;SDS011;9099;47.958;11.366;2022-12-20T09:37:42;3.65;;;2.20;;
17947;SDS011;9099;47.958;11.366;2022-12-20T09:40:13;2.20;;;2.00;;
17947;SDS011;9099;47.958;11.366;2022-12-20T09:42:43;2.40;;;2.20;;
17947;SDS011;9099;47.958;11.366;2022-12-20T09:45:17;2.38;;;2.05;;
17947;SDS011;9099;47.958;11.366;2022-12-20T09:47:50;2.00;;;1.80;;
17947;SDS011;9099;47.958;11.366;2022-12-20T09:50:18;1.90;;;1.75;;
17947;SDS011;9099;47.958;11.366;2022-12-20T09:52:54;2.55;;;2.03;;
17947;SDS011;9099;47.958;11.366;2022-12-20T09:55:30;2.42;;;2.17;;
17947;SDS011;9099;47.958;11.366;2022-12-20T09:58:05;2.90;;;2.60;;
17947;SDS011;9099;47.958;11.366;2022-12-20T10:00:41;2.92;;;2.60;;
17947;SDS011;9099;47.958;11.366;2022-12-20T10:03:12;3.40;;;2.45;;
17947;SDS011;9099;47.958;11.366;2022-12-20T10:05:46;3.35;;;2.45;;
17947;SDS011;9099;47.958;11.366;2022-12-20T10:08:22;2.38;;;2.00;;
17947;SDS011;9099;47.958;11.366;2022-12-20T10:11:03;2.60;;;2.40;;
17947;SDS011;9099;47.958;11.366;2022-12-20T10:13:37;2.65;;;2.45;;
17947;SDS011;9099;47.958;11.366;2022-12-20T10:16:19;3.15;;;2.85;;
17947;SDS011;9099;47.958;11.366;2022-12-20T10:19:00;3.38;;;3.08;;
17947;SDS011;9099;47.958;11.366;2022-12-20T10:21:39;3.00;;;2.80;;
17947;SDS011;9099;47.958;11.366;2022-12-20T10:24:14;3.35;;;2.40;;
17947;SDS011;9099;47.958;11.366;2022-12-20T10:26:43;1.95;;;1.85;;
17947;SDS011;9099;47.958;11.366;2022-12-20T10:29:11;2.30;;;1.90;;
17947;SDS011;9099;47.958;11.366;2022-12-20T10:31:39;5.28;;;3.42;;
17947;SDS011;9099;47.958;11.366;2022-12-20T10:34:06;5.55;;;4.38;;
17947;SDS011;9099;47.958;11.366;2022-12-20T10:36:34;7.13;;;3.90;;
17947;SDS011;9099;47.958;11.366;2022-12-20T10:39:02;4.75;;;3.53;;
17947;SDS011;9099;47.958;11.366;2022-12-20T10:41:31;4.28;;;3.85;;
17947;SDS011;9099;47.958;11.366;2022-12-20T10:44:15;3.75;;;3.45;;
17947;SDS011;9099;47.958;11.366;2022-12-20T10:46:46;5.15;;;3.33;;
17947;SDS011;9099;47.958;11.366;2022-12-20T10:49:27;3.58;;;3.28;;
17947;SDS011;9099;47.958;11.366;2022-12-20T10:51:57;3.50;;;3.20;;
17947;SDS011;9099;47.958;11.366;2022-12-20T10:54:28;3.90;;;3.28;;
17947;SDS011;9099;47.958;11.366;2022-12-20T10:56:57;3.67;;;3.13;;
17947;SDS011;9099;47.958;11.366;2022-12-20T10:59:28;4.28;;;2.83;;
17947;SDS011;9099;47.958;11.366;2022-12-20T11:02:00;3.65;;;2.97;;
17947;SDS011;9099;47.958;11.366;2022-12-20T11:04:29;2.92;;;2.72;;
17947;SDS011;9099;47.958;11.366;2022-12-20T11:06:57;2.70;;;2.50;;
17947;SDS011;9099;47.958;11.366;2022-12-20T11:09:27;2.78;;;2.55;;
17947;SDS011;9099;47.958;11.366;2022-12-20T11:11:56;2.20;;;2.00;;
17947;SDS011;9099;47.958;11.366;2022-12-20T11:14:24;3.00;;;2.72;;
17947;SDS011;9099;47.958;11.366;2022-12-20T11:16:52;2.40;;;2.20;;
17947;SDS011;9099;47.958;11.366;2022-12-20T11:19:33;2.60;;;2.20;;
17947;SDS011;9099;47.958;11.366;2022-12-20T11:22:15;2.30;;;2.10;;
17947;SDS011;9099;47.958;11.366;2022-12-20T11:24:51;2.58;;;2.38;;
17947;SDS011;9099;47.958;11.366;2022-12-20T11:27:29;2.60;;;2.40;;
17947;SDS011;9099;47.958;11.366;2022-12-20T11:30:08;2.28;;;2.08;;
17947;SDS011;9099;47.958;11.366;2022-12-20T11:32:53;3.38;;;3.10;;
17947;SDS011;9099;47.958;11.366;2022-12-20T11:35:36;3.95;;;3.55;;
17947;SDS011;9099;47.958;11.366;2022-12-20T11:38:13;3.78;;;3.42;;
17947;SDS011;9099;47.958;11.366;2022-12-20T11:40:51;4.05;;;3.60;;
17947;SDS011;9099;47.958;11.366;2022-12-20T11:43:30;5.75;;;3.15;;
17947;SDS011;9099;47.958;11.366;2022-12-20T11:46:15;3.67;;;3.00;;
17947;SDS011;9099;47.958;11.366;2022-12-20T11:51:47;3.00;;;2.45;;
17947;SDS011;9099;47.958;11.366;2022-12-20T11:54:19;2.75;;;2.50;;
17947;SDS011;9099;47.958;11.366;2022-12-20T11:56:51;2.55;;;2.17;;
17947;SDS011;9099;47.958;11.366;2022-12-20T11:59:24;3.00;;;2.80;;
17947;SDS011;9099;47.958;11.366;2022-12-20T12:02:01;2.83;;;2.55;;
17947;SDS011;9099;47.958;11.366;2022-12-20T12:04:36;3.38;;;3.08;;
17947;SDS011;9099;47.958;11.366;2022-12-20T12:07:09;2.70;;;2.50;;
17947;SDS011;9099;47.958;11.366;2022-12-20T12:09:41;2.85;;;2.65;;
17947;SDS011;9099;47.958;11.366;2022-12-20T12:12:16;2.97;;;2.63;;
17947;SDS011;9099;47.958;11.366;2022-12-20T12:14:49;2.72;;;2.53;;
17947;SDS011;9099;47.958;11.366;2022-12-20T12:17:25;2.72;;;2.40;;
17947;SDS011;9099;47.958;11.366;2022-12-20T12:20:03;2.97;;;2.70;;
17947;SDS011;9099;47.958;11.366;2022-12-20T12:22:51;2.75;;;2.42;;
17947;SDS011;9099;47.958;11.366;2022-12-20T12:25:20;2.80;;;2.47;;
17947;SDS011;9099;47.958;11.366;2022-12-20T12:27:47;2.72;;;2.15;;
17947;SDS011;9099;47.958;11.366;2022-12-20T12:30:15;3.40;;;3.10;;
17947;SDS011;9099;47.958;11.366;2022-12-20T12:32:43;6.80;;;3.60;;
17947;SDS011;9099;47.958;11.366;2022-12-20T12:38:20;5.00;;;4.50;;
17947;SDS011;9099;47.958;11.366;2022-12-20T12:41:10;4.60;;;4.13;;
17947;SDS011;9099;47.958;11.366;2022-12-20T12:44:04;4.20;;;3.90;;
17947;SDS011;9099;47.958;11.366;2022-12-20T12:46:57;4.18;;;3.83;;
17947;SDS011;9099;47.958;11.366;2022-12-20T12:49:27;4.05;;;3.72;;
17947;SDS011;9099;47.958;11.366;2022-12-20T12:51:57;3.60;;;3.10;;
17947;SDS011;9099;47.958;11.366;2022-12-20T12:54:27;3.58;;;3.25;;
17947;SDS011;9099;47.958;11.366;2022-12-20T12:56:58;3.35;;;3.15;;
17947;SDS011;9099;47.958;11.366;2022-12-20T13:02:26;3.20;;;2.90;;
17947;SDS011;9099;47.958;11.366;2022-12-20T13:05:29;3.40;;;3.10;;
17947;SDS011;9099;47.958;11.366;2022-12-20T13:07:58;3.22;;;2.92;;
17947;SDS011;9099;47.958;11.366;2022-12-20T13:13:23;4.63;;;3.15;;
17947;SDS011;9099;47.958;11.366;2022-12-20T13:15:51;3.20;;;2.90;;
17947;SDS011;9099;47.958;11.366;2022-12-20T13:18:55;3.28;;;2.97;;
17947;SDS011;9099;47.958;11.366;2022-12-20T13:21:36;3.45;;;3.15;;
17947;SDS011;9099;47.958;11.366;2022-12-20T13:27:25;3.25;;;2.83;;
17947;SDS011;9099;47.958;11.366;2022-12-20T13:30:00;2.70;;;2.50;;
17947;SDS011;9099;47.958;11.366;2022-12-20T13:32:57;2.55;;;2.35;;
17947;SDS011;9099;47.958;11.366;2022-12-20T13:35:46;2.40;;;2.20;;
17947;SDS011;9099;47.958;11.366;2022-12-20T13:38:38;1.88;;;1.63;;
17947;SDS011;9099;47.958;11.366;2022-12-20T13:41:18;3.45;;;2.05;;
17947;SDS011;9099;47.958;11.366;2022-12-20T13:43:56;2.47;;;2.20;;
17947;SDS011;9099;47.958;11.366;2022-12-20T13:46:26;1.88;;;1.73;;
17947;SDS011;9099;47.958;11.366;2022-12-20T13:49:00;2.30;;;2.00;;
17947;SDS011;9099;47.958;11.366;2022-12-20T13:51:30;2.13;;;1.92;;
17947;SDS011;9099;47.958;11.366;2022-12-20T13:53:57;1.73;;;1.63;;
17947;SDS011;9099;47.958;11.366;2022-12-20T13:56:31;4.97;;;3.30;;
17947;SDS011;9099;47.958;11.366;2022-12-20T13:59:06;4.47;;;4.07;;
17947;SDS011;9099;47.958;11.366;2022-12-20T14:01:45;5.38;;;4.93;;
17947;SDS011;9099;47.958;11.366;2022-12-20T14:04:13;2.95;;;2.75;;
17947;SDS011;9099;47.958;11.366;2022-12-20T14:06:41;2.88;;;2.58;;
17947;SDS011;9099;47.958;11.366;2022-12-20T14:11:53;2.90;;;2.42;;
17947;SDS011;9099;47.958;11.366;2022-12-20T14:14:21;3.60;;;2.83;;
17947;SDS011;9099;47.958;11.366;2022-12-20T14:16:48;2.80;;;2.50;;
17947;SDS011;9099;47.958;11.366;2022-12-20T14:19:15;3.33;;;2.50;;
17947;SDS011;9099;47.958;11.366;2022-12-20T14:21:42;2.72;;;2.53;;
17947;SDS011;9099;47.958;11.366;2022-12-20T14:24:13;2.47;;;2.28;;
17947;SDS011;9099;47.958;11.366;2022-12-20T14:26:42;2.40;;;2.20;;
17947;SDS011;9099;47.958;11.366;2022-12-20T14:29:15;2.47;;;2.28;;
17947;SDS011;9099;47.958;11.366;2022-12-20T14:31:45;2.80;;;2.30;;
17947;SDS011;9099;47.958;11.366;2022-12-20T14:34:14;3.10;;;2.60;;
17947;SDS011;9099;47.958;11.366;2022-12-20T14:36:44;2.35;;;2.15;;
17947;SDS011;9099;47.958;11.366;2022-12-20T14:39:22;2.35;;;2.15;;
17947;SDS011;9099;47.958;11.366;2022-12-20T14:41:54;2.35;;;2.03;;
17947;SDS011;9099;47.958;11.366;2022-12-20T14:44:22;2.25;;;2.03;;
17947;SDS011;9099;47.958;11.366;2022-12-20T14:46:51;2.80;;;2.50;;
17947;SDS011;9099;47.958;11.366;2022-12-20T14:49:21;2.80;;;2.60;;
17947;SDS011;9099;47.958;11.366;2022-12-20T14:51:50;2.60;;;2.40;;
17947;SDS011;9099;47.958;11.366;2022-12-20T14:54:18;2.47;;;2.22;;
17947;SDS011;9099;47.958;11.366;2022-12-20T14:56:47;2.13;;;1.90;;
17947;SDS011;9099;47.958;11.366;2022-12-20T14:59:16;2.53;;;2.33;;
17947;SDS011;9099;47.958;11.366;2022-12-20T15:01:51;2.63;;;2.38;;
17947;SDS011;9099;47.958;11.366;2022-12-20T15:04:23;2.50;;;2.20;;
17947;SDS011;9099;47.958;11.366;2022-12-20T15:06:55;3.33;;;2.20;;
17947;SDS011;9099;47.958;11.366;2022-12-20T15:09:23;2.03;;;1.85;;
17947;SDS011;9099;47.958;11.366;2022-12-20T15:11:50;2.75;;;2.42;;
17947;SDS011;9099;47.958;11.366;2022-12-20T15:14:31;2.60;;;2.40;;
17947;SDS011;9099;47.958;11.366;2022-12-20T15:17:02;4.30;;;2.35;;
17947;SDS011;9099;47.958;11.366;2022-12-20T15:19:30;5.40;;;3.30;;
17947;SDS011;9099;47.958;11.366;2022-12-20T15:21:57;6.32;;;4.07;;
17947;SDS011;9099;47.958;11.366;2022-12-20T15:24:24;4.45;;;4.05;;
17947;SDS011;9099;47.958;11.366;2022-12-20T15:26:53;7.15;;;4.50;;